sensor_id;sensor_type;location;lat;lon;timestamp;temperature;humidity
68511;SHT31;55512;50.102;19.958;2022-12-10T00:03:35;3.65;75.70
68511;SHT31;55512;50.102;19.958;2022-12-10T00:06:03;3.64;75.74
68511;SHT31;55512;50.102;19.958;2022-12-10T00:08:32;3.64;75.79
68511;SHT31;55512;50.102;19.958;2022-12-10T00:10:59;3.62;75.79
68511;SHT31;55512;50.102;19.958;2022-12-10T00:13:24;3.59;75.80
68511;SHT31;55512;50.102;19.958;2022-12-10T00:15:50;3.58;75.80
68511;SHT31;55512;50.102;19.958;2022-12-10T00:18:16;3.58;75.87
68511;SHT31;55512;50.102;19.958;2022-12-10T00:20:41;3.58;75.92
68511;SHT31;55512;50.102;19.958;2022-12-10T00:23:06;3.56;75.94
68511;SHT31;55512;50.102;19.958;2022-12-10T00:25:32;3.55;75.99
68511;SHT31;55512;50.102;19.958;2022-12-10T00:27:57;3.55;76.00
68511;SHT31;55512;50.102;19.958;2022-12-10T00:30:23;3.55;76.00
68511;SHT31;55512;50.102;19.958;2022-12-10T00:32:49;3.54;76.00
68511;SHT31;55512;50.102;19.958;2022-12-10T00:35:15;3.55;76.00
68511;SHT31;55512;50.102;19.958;2022-12-10T00:37:40;3.55;76.00
68511;SHT31;55512;50.102;19.958;2022-12-10T00:40:06;3.56;76.03
68511;SHT31;55512;50.102;19.958;2022-12-10T00:42:33;3.55;76.10
68511;SHT31;55512;50.102;19.958;2022-12-10T00:44:59;3.51;76.12
68511;SHT31;55512;50.102;19.958;2022-12-10T00:47:25;3.50;76.14
68511;SHT31;55512;50.102;19.958;2022-12-10T00:49:50;3.49;76.21
68511;SHT31;55512;50.102;19.958;2022-12-10T00:52:15;3.45;76.29
68511;SHT31;55512;50.102;19.958;2022-12-10T00:54:41;3.42;76.36
68511;SHT31;55512;50.102;19.958;2022-12-10T00:57:07;3.43;76.40
68511;SHT31;55512;50.102;19.958;2022-12-10T00:59:32;3.42;76.44
68511;SHT31;55512;50.102;19.958;2022-12-10T01:01:58;3.41;76.49
68511;SHT31;55512;50.102;19.958;2022-12-10T01:04:23;3.39;76.50
68511;SHT31;55512;50.102;19.958;2022-12-10T01:06:50;3.40;76.50
68511;SHT31;55512;50.102;19.958;2022-12-10T01:09:22;3.40;76.50
68511;SHT31;55512;50.102;19.958;2022-12-10T01:11:50;3.38;76.59
68511;SHT31;55512;50.102;19.958;2022-12-10T01:14:19;3.38;76.60
68511;SHT31;55512;50.102;19.958;2022-12-10T01:16:50;3.40;76.58
68511;SHT31;55512;50.102;19.958;2022-12-10T01:19:21;3.41;76.54
68511;SHT31;55512;50.102;19.958;2022-12-10T01:21:50;3.43;76.57
68511;SHT31;55512;50.102;19.958;2022-12-10T01:24:20;3.45;76.59
68511;SHT31;55512;50.102;19.958;2022-12-10T01:26:47;3.46;76.51
68511;SHT31;55512;50.102;19.958;2022-12-10T01:29:13;3.45;76.54
68511;SHT31;55512;50.102;19.958;2022-12-10T01:31:38;3.45;76.60
68511;SHT31;55512;50.102;19.958;2022-12-10T01:34:06;3.44;76.60
68511;SHT31;55512;50.102;19.958;2022-12-10T01:36:41;3.44;76.60
68511;SHT31;55512;50.102;19.958;2022-12-10T01:39:10;3.45;76.60
68511;SHT31;55512;50.102;19.958;2022-12-10T01:41:42;3.45;76.60
68511;SHT31;55512;50.102;19.958;2022-12-10T01:46:55;3.47;76.60
68511;SHT31;55512;50.102;19.958;2022-12-10T01:49:24;3.46;76.60
68511;SHT31;55512;50.102;19.958;2022-12-10T01:52:04;3.43;76.68
68511;SHT31;55512;50.102;19.958;2022-12-10T01:54:35;3.43;76.67
68511;SHT31;55512;50.102;19.958;2022-12-10T01:57:16;3.43;76.70
68511;SHT31;55512;50.102;19.958;2022-12-10T01:59:45;3.40;76.72
68511;SHT31;55512;50.102;19.958;2022-12-10T02:02:18;3.38;76.80
68511;SHT31;55512;50.102;19.958;2022-12-10T02:07:42;3.38;76.80
68511;SHT31;55512;50.102;19.958;2022-12-10T02:13:01;3.32;77.00
68511;SHT31;55512;50.102;19.958;2022-12-10T02:15:51;3.30;77.02
68511;SHT31;55512;50.102;19.958;2022-12-10T02:21:26;3.28;77.14
68511;SHT31;55512;50.102;19.958;2022-12-10T02:24:03;3.25;77.31
68511;SHT31;55512;50.102;19.958;2022-12-10T02:26:48;3.21;77.32
68511;SHT31;55512;50.102;19.958;2022-12-10T02:29:27;3.19;77.40
68511;SHT31;55512;50.102;19.958;2022-12-10T02:31:56;3.17;77.44
68511;SHT31;55512;50.102;19.958;2022-12-10T02:34:35;3.16;77.57
68511;SHT31;55512;50.102;19.958;2022-12-10T02:37:29;3.13;77.72
68511;SHT31;55512;50.102;19.958;2022-12-10T02:40:03;3.11;77.80
68511;SHT31;55512;50.102;19.958;2022-12-10T02:42:37;3.10;77.78
68511;SHT31;55512;50.102;19.958;2022-12-10T02:45:06;3.09;77.83
68511;SHT31;55512;50.102;19.958;2022-12-10T02:47:34;3.07;77.90
68511;SHT31;55512;50.102;19.958;2022-12-10T02:50:01;3.10;77.84
68511;SHT31;55512;50.102;19.958;2022-12-10T02:52:28;3.14;77.79
68511;SHT31;55512;50.102;19.958;2022-12-10T02:54:53;3.15;77.79
68511;SHT31;55512;50.102;19.958;2022-12-10T03:02:46;3.14;77.88
68511;SHT31;55512;50.102;19.958;2022-12-10T03:05:45;3.15;77.80
68511;SHT31;55512;50.102;19.958;2022-12-10T03:11:12;3.18;77.89
68511;SHT31;55512;50.102;19.958;2022-12-10T03:16:49;3.17;77.90
68511;SHT31;55512;50.102;19.958;2022-12-10T03:19:20;3.19;77.90
68511;SHT31;55512;50.102;19.958;2022-12-10T03:21:53;3.20;77.90
68511;SHT31;55512;50.102;19.958;2022-12-10T03:24:22;3.22;77.90
68511;SHT31;55512;50.102;19.958;2022-12-10T03:26:51;3.21;77.89
68511;SHT31;55512;50.102;19.958;2022-12-10T03:29:19;3.21;77.89
68511;SHT31;55512;50.102;19.958;2022-12-10T03:31:55;3.22;77.89
68511;SHT31;55512;50.102;19.958;2022-12-10T03:34:23;3.24;77.88
68511;SHT31;55512;50.102;19.958;2022-12-10T03:36:49;3.25;77.86
68511;SHT31;55512;50.102;19.958;2022-12-10T03:39:16;3.27;77.80
68511;SHT31;55512;50.102;19.958;2022-12-10T03:41:42;3.30;77.80
68511;SHT31;55512;50.102;19.958;2022-12-10T03:44:08;3.32;77.80
68511;SHT31;55512;50.102;19.958;2022-12-10T03:46:33;3.32;77.77
68511;SHT31;55512;50.102;19.958;2022-12-10T03:49:00;3.34;77.76
68511;SHT31;55512;50.102;19.958;2022-12-10T03:51:27;3.36;77.76
68511;SHT31;55512;50.102;19.958;2022-12-10T03:53:53;3.36;77.79
68511;SHT31;55512;50.102;19.958;2022-12-10T03:56:19;3.35;77.80
68511;SHT31;55512;50.102;19.958;2022-12-10T03:58:46;3.35;77.80
68511;SHT31;55512;50.102;19.958;2022-12-10T04:01:12;3.37;77.80
68511;SHT31;55512;50.102;19.958;2022-12-10T04:03:39;3.39;77.73
68511;SHT31;55512;50.102;19.958;2022-12-10T04:06:07;3.41;77.70
68511;SHT31;55512;50.102;19.958;2022-12-10T04:08:39;3.42;77.70
68511;SHT31;55512;50.102;19.958;2022-12-10T04:11:05;3.44;77.70
68511;SHT31;55512;50.102;19.958;2022-12-10T04:13:34;3.44;77.68
68511;SHT31;55512;50.102;19.958;2022-12-10T04:16:21;3.44;77.69
68511;SHT31;55512;50.102;19.958;2022-12-10T04:18:53;3.43;77.68
68511;SHT31;55512;50.102;19.958;2022-12-10T04:21:23;3.45;77.70
68511;SHT31;55512;50.102;19.958;2022-12-10T04:24:08;3.43;77.68
68511;SHT31;55512;50.102;19.958;2022-12-10T04:26:55;3.43;77.71
68511;SHT31;55512;50.102;19.958;2022-12-10T04:29:27;3.40;77.76
68511;SHT31;55512;50.102;19.958;2022-12-10T04:31:55;3.40;77.80
68511;SHT31;55512;50.102;19.958;2022-12-10T04:34:22;3.40;77.84
68511;SHT31;55512;50.102;19.958;2022-12-10T04:36:49;3.44;77.91
68511;SHT31;55512;50.102;19.958;2022-12-10T04:39:16;3.46;77.90
68511;SHT31;55512;50.102;19.958;2022-12-10T04:41:43;3.46;77.89
68511;SHT31;55512;50.102;19.958;2022-12-10T04:44:13;3.48;77.87
68511;SHT31;55512;50.102;19.958;2022-12-10T04:46:40;3.49;77.84
68511;SHT31;55512;50.102;19.958;2022-12-10T04:49:06;3.50;77.80
68511;SHT31;55512;50.102;19.958;2022-12-10T04:51:32;3.50;77.78
68511;SHT31;55512;50.102;19.958;2022-12-10T04:53:58;3.51;77.72
68511;SHT31;55512;50.102;19.958;2022-12-10T04:56:24;3.50;77.70
68511;SHT31;55512;50.102;19.958;2022-12-10T04:58:50;3.51;77.70
68511;SHT31;55512;50.102;19.958;2022-12-10T05:01:16;3.48;77.62
68511;SHT31;55512;50.102;19.958;2022-12-10T05:03:43;3.46;77.61
68511;SHT31;55512;50.102;19.958;2022-12-10T05:06:11;3.44;77.64
68511;SHT31;55512;50.102;19.958;2022-12-10T05:08:40;3.43;77.67
68511;SHT31;55512;50.102;19.958;2022-12-10T05:11:07;3.43;77.68
68511;SHT31;55512;50.102;19.958;2022-12-10T05:13:37;3.42;77.67
68511;SHT31;55512;50.102;19.958;2022-12-10T05:16:04;3.41;77.69
68511;SHT31;55512;50.102;19.958;2022-12-10T05:18:34;3.40;77.69
68511;SHT31;55512;50.102;19.958;2022-12-10T05:21:02;3.40;77.69
68511;SHT31;55512;50.102;19.958;2022-12-10T05:23:31;3.40;77.69
68511;SHT31;55512;50.102;19.958;2022-12-10T05:28:39;3.41;77.63
68511;SHT31;55512;50.102;19.958;2022-12-10T05:31:43;3.38;77.61
68511;SHT31;55512;50.102;19.958;2022-12-10T05:34:02;3.38;77.69
68511;SHT31;55512;50.102;19.958;2022-12-10T05:36:29;3.36;77.70
68511;SHT31;55512;50.102;19.958;2022-12-10T05:38:57;3.37;77.71
68511;SHT31;55512;50.102;19.958;2022-12-10T05:41:24;3.37;77.74
68511;SHT31;55512;50.102;19.958;2022-12-10T05:43:53;3.38;77.80
68511;SHT31;55512;50.102;19.958;2022-12-10T05:46:22;3.39;77.80
68511;SHT31;55512;50.102;19.958;2022-12-10T05:48:51;3.39;77.80
68511;SHT31;55512;50.102;19.958;2022-12-10T05:51:18;3.40;77.80
68511;SHT31;55512;50.102;19.958;2022-12-10T05:53:47;3.41;77.81
68511;SHT31;55512;50.102;19.958;2022-12-10T05:56:14;3.39;77.80
68511;SHT31;55512;50.102;19.958;2022-12-10T05:58:44;3.38;77.84
68511;SHT31;55512;50.102;19.958;2022-12-10T06:01:14;3.39;77.90
68511;SHT31;55512;50.102;19.958;2022-12-10T06:03:44;3.44;77.91
68511;SHT31;55512;50.102;19.958;2022-12-10T06:06:10;3.45;77.90
68511;SHT31;55512;50.102;19.958;2022-12-10T06:08:37;3.46;77.84
68511;SHT31;55512;50.102;19.958;2022-12-10T06:11:05;3.46;77.80
68511;SHT31;55512;50.102;19.958;2022-12-10T06:13:34;3.47;77.79
68511;SHT31;55512;50.102;19.958;2022-12-10T06:16:08;3.48;77.74
68511;SHT31;55512;50.102;19.958;2022-12-10T06:18:36;3.51;77.70
68511;SHT31;55512;50.102;19.958;2022-12-10T06:21:06;3.51;77.70
68511;SHT31;55512;50.102;19.958;2022-12-10T06:23:35;3.52;77.70
68511;SHT31;55512;50.102;19.958;2022-12-10T06:26:06;3.51;77.69
68511;SHT31;55512;50.102;19.958;2022-12-10T06:28:34;3.49;77.63
68511;SHT31;55512;50.102;19.958;2022-12-10T06:31:00;3.47;77.60
68511;SHT31;55512;50.102;19.958;2022-12-10T06:33:26;3.46;77.60
68511;SHT31;55512;50.102;19.958;2022-12-10T06:35:52;3.47;77.60
68511;SHT31;55512;50.102;19.958;2022-12-10T06:38:17;3.49;77.60
68511;SHT31;55512;50.102;19.958;2022-12-10T06:40:43;3.51;77.52
68511;SHT31;55512;50.102;19.958;2022-12-10T06:43:08;3.51;77.50
68511;SHT31;55512;50.102;19.958;2022-12-10T06:45:37;3.52;77.47
68511;SHT31;55512;50.102;19.958;2022-12-10T06:48:05;3.52;77.41
68511;SHT31;55512;50.102;19.958;2022-12-10T06:50:31;3.52;77.41
68511;SHT31;55512;50.102;19.958;2022-12-10T06:52:56;3.53;77.38
68511;SHT31;55512;50.102;19.958;2022-12-10T06:55:22;3.54;77.33
68511;SHT31;55512;50.102;19.958;2022-12-10T06:57:50;3.54;77.30
68511;SHT31;55512;50.102;19.958;2022-12-10T07:00:17;3.56;77.31
68511;SHT31;55512;50.102;19.958;2022-12-10T07:02:43;3.56;77.29
68511;SHT31;55512;50.102;19.958;2022-12-10T07:05:09;3.55;77.30
68511;SHT31;55512;50.102;19.958;2022-12-10T07:07:34;3.57;77.28
68511;SHT31;55512;50.102;19.958;2022-12-10T07:10:02;3.57;77.23
68511;SHT31;55512;50.102;19.958;2022-12-10T07:12:29;3.59;77.23
68511;SHT31;55512;50.102;19.958;2022-12-10T07:14:54;3.59;77.19
68511;SHT31;55512;50.102;19.958;2022-12-10T07:17:20;3.59;77.15
68511;SHT31;55512;50.102;19.958;2022-12-10T07:19:45;3.59;77.14
68511;SHT31;55512;50.102;19.958;2022-12-10T07:22:11;3.61;77.20
68511;SHT31;55512;50.102;19.958;2022-12-10T07:24:36;3.61;77.11
68511;SHT31;55512;50.102;19.958;2022-12-10T07:27:04;3.63;77.07
68511;SHT31;55512;50.102;19.958;2022-12-10T07:29:31;3.63;77.01
68511;SHT31;55512;50.102;19.958;2022-12-10T07:31:56;3.64;77.00
68511;SHT31;55512;50.102;19.958;2022-12-10T07:34:22;3.63;77.00
68511;SHT31;55512;50.102;19.958;2022-12-10T07:36:47;3.64;77.00
68511;SHT31;55512;50.102;19.958;2022-12-10T07:39:13;3.66;77.00
68511;SHT31;55512;50.102;19.958;2022-12-10T07:41:43;3.68;76.98
68511;SHT31;55512;50.102;19.958;2022-12-10T07:44:17;3.69;76.90
68511;SHT31;55512;50.102;19.958;2022-12-10T07:46:46;3.71;76.90
68511;SHT31;55512;50.102;19.958;2022-12-10T07:49:12;3.72;76.82
68511;SHT31;55512;50.102;19.958;2022-12-10T07:51:38;3.73;76.80
68511;SHT31;55512;50.102;19.958;2022-12-10T07:54:04;3.73;76.80
68511;SHT31;55512;50.102;19.958;2022-12-10T07:56:29;3.75;76.80
68511;SHT31;55512;50.102;19.958;2022-12-10T07:58:55;3.76;76.80
68511;SHT31;55512;50.102;19.958;2022-12-10T08:01:22;3.74;76.76
68511;SHT31;55512;50.102;19.958;2022-12-10T08:03:50;3.69;76.78
68511;SHT31;55512;50.102;19.958;2022-12-10T08:06:18;3.66;76.84
68511;SHT31;55512;50.102;19.958;2022-12-10T08:08:46;3.66;76.91
68511;SHT31;55512;50.102;19.958;2022-12-10T08:11:13;3.63;76.92
68511;SHT31;55512;50.102;19.958;2022-12-10T08:13:41;3.63;76.96
68511;SHT31;55512;50.102;19.958;2022-12-10T08:16:09;3.63;77.00
68511;SHT31;55512;50.102;19.958;2022-12-10T08:18:39;3.63;77.00
68511;SHT31;55512;50.102;19.958;2022-12-10T08:21:05;3.62;77.06
68511;SHT31;55512;50.102;19.958;2022-12-10T08:23:33;3.62;77.10
68511;SHT31;55512;50.102;19.958;2022-12-10T08:26:02;3.63;77.10
68511;SHT31;55512;50.102;19.958;2022-12-10T08:28:29;3.65;77.10
68511;SHT31;55512;50.102;19.958;2022-12-10T08:30:54;3.66;77.09
68511;SHT31;55512;50.102;19.958;2022-12-10T08:33:20;3.69;77.10
68511;SHT31;55512;50.102;19.958;2022-12-10T08:35:46;3.71;77.06
68511;SHT31;55512;50.102;19.958;2022-12-10T08:38:11;3.70;77.07
68511;SHT31;55512;50.102;19.958;2022-12-10T08:40:40;3.72;77.07
68511;SHT31;55512;50.102;19.958;2022-12-10T08:43:06;3.71;77.00
68511;SHT31;55512;50.102;19.958;2022-12-10T08:45:33;3.73;77.00
68511;SHT31;55512;50.102;19.958;2022-12-10T08:48:00;3.75;76.98
68511;SHT31;55512;50.102;19.958;2022-12-10T08:50:27;3.78;77.00
68511;SHT31;55512;50.102;19.958;2022-12-10T08:52:53;3.81;77.00
68511;SHT31;55512;50.102;19.958;2022-12-10T08:55:19;3.85;77.00
68511;SHT31;55512;50.102;19.958;2022-12-10T08:57:44;3.88;76.96
68511;SHT31;55512;50.102;19.958;2022-12-10T09:00:10;3.91;76.90
68511;SHT31;55512;50.102;19.958;2022-12-10T09:02:38;3.93;76.90
68511;SHT31;55512;50.102;19.958;2022-12-10T09:05:04;3.95;76.84
68511;SHT31;55512;50.102;19.958;2022-12-10T09:07:30;3.93;76.80
68511;SHT31;55512;50.102;19.958;2022-12-10T09:09:56;3.92;76.81
68511;SHT31;55512;50.102;19.958;2022-12-10T09:12:21;3.89;76.80
68511;SHT31;55512;50.102;19.958;2022-12-10T09:14:46;3.88;76.87
68511;SHT31;55512;50.102;19.958;2022-12-10T09:17:12;3.90;76.90
68511;SHT31;55512;50.102;19.958;2022-12-10T09:19:37;3.90;76.90
68511;SHT31;55512;50.102;19.958;2022-12-10T09:22:03;3.91;76.90
68511;SHT31;55512;50.102;19.958;2022-12-10T09:24:28;3.93;76.90
68511;SHT31;55512;50.102;19.958;2022-12-10T09:26:54;3.96;76.82
68511;SHT31;55512;50.102;19.958;2022-12-10T09:29:19;3.95;76.80
68511;SHT31;55512;50.102;19.958;2022-12-10T09:31:45;3.99;76.83
68511;SHT31;55512;50.102;19.958;2022-12-10T09:34:15;4.03;76.81
68511;SHT31;55512;50.102;19.958;2022-12-10T09:36:40;4.05;76.80
68511;SHT31;55512;50.102;19.958;2022-12-10T09:39:06;4.05;76.73
68511;SHT31;55512;50.102;19.958;2022-12-10T09:44:21;4.14;76.76
68511;SHT31;55512;50.102;19.958;2022-12-10T09:47:04;4.20;76.70
68511;SHT31;55512;50.102;19.958;2022-12-10T09:49:55;4.25;76.64
68511;SHT31;55512;50.102;19.958;2022-12-10T09:52:23;4.28;76.54
68511;SHT31;55512;50.102;19.958;2022-12-10T09:57:27;4.34;76.49
68511;SHT31;55512;50.102;19.958;2022-12-10T10:00:06;4.37;76.35
68511;SHT31;55512;50.102;19.958;2022-12-10T10:02:59;4.37;76.22
68511;SHT31;55512;50.102;19.958;2022-12-10T10:08:06;4.36;76.06
68511;SHT31;55512;50.102;19.958;2022-12-10T10:10:44;4.38;76.06
68511;SHT31;55512;50.102;19.958;2022-12-10T10:13:11;4.40;76.09
68511;SHT31;55512;50.102;19.958;2022-12-10T10:15:45;4.41;76.01
68511;SHT31;55512;50.102;19.958;2022-12-10T10:18:13;4.42;76.00
68511;SHT31;55512;50.102;19.958;2022-12-10T10:20:54;4.41;75.90
68511;SHT31;55512;50.102;19.958;2022-12-10T10:23:21;4.41;75.90
68511;SHT31;55512;50.102;19.958;2022-12-10T10:25:46;4.42;75.87
68511;SHT31;55512;50.102;19.958;2022-12-10T10:28:12;4.43;75.78
68511;SHT31;55512;50.102;19.958;2022-12-10T10:30:45;4.40;75.70
68511;SHT31;55512;50.102;19.958;2022-12-10T10:33:11;4.37;75.68
68511;SHT31;55512;50.102;19.958;2022-12-10T10:40:54;4.47;75.70
68511;SHT31;55512;50.102;19.958;2022-12-10T10:43:33;4.54;75.72
68511;SHT31;55512;50.102;19.958;2022-12-10T10:46:16;4.61;75.57
68511;SHT31;55512;50.102;19.958;2022-12-10T10:48:47;4.64;75.52
68511;SHT31;55512;50.102;19.958;2022-12-10T10:53:44;4.77;75.49
68511;SHT31;55512;50.102;19.958;2022-12-10T10:56:17;4.81;75.28
68511;SHT31;55512;50.102;19.958;2022-12-10T10:58:53;4.80;75.07
68511;SHT31;55512;50.102;19.958;2022-12-10T11:01:54;4.75;74.86
68511;SHT31;55512;50.102;19.958;2022-12-10T11:04:47;4.70;74.80
68511;SHT31;55512;50.102;19.958;2022-12-10T11:09:56;4.51;74.54
68511;SHT31;55512;50.102;19.958;2022-12-10T11:14:57;4.46;74.80
68511;SHT31;55512;50.102;19.958;2022-12-10T11:17:23;4.43;74.83
68511;SHT31;55512;50.102;19.958;2022-12-10T11:22:49;4.40;74.73
68511;SHT31;55512;50.102;19.958;2022-12-10T11:45:28;4.46;74.85
68511;SHT31;55512;50.102;19.958;2022-12-10T11:56:43;4.25;74.91
68511;SHT31;55512;50.102;19.958;2022-12-10T11:59:23;4.26;75.00
68511;SHT31;55512;50.102;19.958;2022-12-10T12:02:07;4.22;74.99
68511;SHT31;55512;50.102;19.958;2022-12-10T12:05:19;4.14;74.99
68511;SHT31;55512;50.102;19.958;2022-12-10T12:10:57;4.02;75.18
68511;SHT31;55512;50.102;19.958;2022-12-10T12:13:37;4.02;75.27
68511;SHT31;55512;50.102;19.958;2022-12-10T12:16:30;3.97;75.30
68511;SHT31;55512;50.102;19.958;2022-12-10T12:19:14;3.92;75.38
68511;SHT31;55512;50.102;19.958;2022-12-10T12:21:47;3.90;75.46
68511;SHT31;55512;50.102;19.958;2022-12-10T12:24:26;3.90;75.51
68511;SHT31;55512;50.102;19.958;2022-12-10T12:27:23;3.86;75.61
68511;SHT31;55512;50.102;19.958;2022-12-10T12:35:40;3.84;75.80
68511;SHT31;55512;50.102;19.958;2022-12-10T12:41:06;3.74;75.98
68511;SHT31;55512;50.102;19.958;2022-12-10T12:43:47;3.72;76.06
68511;SHT31;55512;50.102;19.958;2022-12-10T12:47:15;3.68;76.11
68511;SHT31;55512;50.102;19.958;2022-12-10T12:49:24;3.60;76.30
68511;SHT31;55512;50.102;19.958;2022-12-10T12:52:05;3.55;76.36
68511;SHT31;55512;50.102;19.958;2022-12-10T12:54:59;3.57;76.39
68511;SHT31;55512;50.102;19.958;2022-12-10T12:57:45;3.58;76.40
68511;SHT31;55512;50.102;19.958;2022-12-10T13:00:19;3.56;76.57
68511;SHT31;55512;50.102;19.958;2022-12-10T13:05:51;3.48;76.82
68511;SHT31;55512;50.102;19.958;2022-12-10T13:16:33;3.43;77.04
68511;SHT31;55512;50.102;19.958;2022-12-10T13:27:03;3.37;77.39
68511;SHT31;55512;50.102;19.958;2022-12-10T13:40:19;3.47;77.43
68511;SHT31;55512;50.102;19.958;2022-12-10T13:43:27;3.48;77.48
68511;SHT31;55512;50.102;19.958;2022-12-10T13:49:17;3.56;77.42
68511;SHT31;55512;50.102;19.958;2022-12-10T14:00:19;3.71;77.30
68511;SHT31;55512;50.102;19.958;2022-12-10T14:08:28;3.74;77.10
68511;SHT31;55512;50.102;19.958;2022-12-10T14:11:02;3.73;77.10
68511;SHT31;55512;50.102;19.958;2022-12-10T14:13:39;3.72;77.10
68511;SHT31;55512;50.102;19.958;2022-12-10T14:16:12;3.72;77.10
68511;SHT31;55512;50.102;19.958;2022-12-10T14:18:43;3.73;77.10
68511;SHT31;55512;50.102;19.958;2022-12-10T14:21:18;3.72;77.05
68511;SHT31;55512;50.102;19.958;2022-12-10T14:23:45;3.71;77.00
68511;SHT31;55512;50.102;19.958;2022-12-10T14:26:14;3.72;77.00
68511;SHT31;55512;50.102;19.958;2022-12-10T14:28:48;3.72;77.00
68511;SHT31;55512;50.102;19.958;2022-12-10T14:31:31;3.72;77.00
68511;SHT31;55512;50.102;19.958;2022-12-10T14:34:05;3.71;77.00
68511;SHT31;55512;50.102;19.958;2022-12-10T14:36:34;3.72;77.00
68511;SHT31;55512;50.102;19.958;2022-12-10T14:39:15;3.72;77.00
68511;SHT31;55512;50.102;19.958;2022-12-10T14:41:46;3.72;77.00
68511;SHT31;55512;50.102;19.958;2022-12-10T14:44:15;3.70;77.00
68511;SHT31;55512;50.102;19.958;2022-12-10T14:46:43;3.67;77.07
68511;SHT31;55512;50.102;19.958;2022-12-10T14:49:22;3.62;77.10
68511;SHT31;55512;50.102;19.958;2022-12-10T14:51:51;3.59;77.11
68511;SHT31;55512;50.102;19.958;2022-12-10T14:54:27;3.58;77.11
68511;SHT31;55512;50.102;19.958;2022-12-10T14:56:58;3.59;77.13
68511;SHT31;55512;50.102;19.958;2022-12-10T14:59:46;3.58;77.10
68511;SHT31;55512;50.102;19.958;2022-12-10T15:02:36;3.60;77.10
68511;SHT31;55512;50.102;19.958;2022-12-10T15:07:56;3.59;77.18
68511;SHT31;55512;50.102;19.958;2022-12-10T15:10:28;3.60;77.13
68511;SHT31;55512;50.102;19.958;2022-12-10T15:13:01;3.59;77.15
68511;SHT31;55512;50.102;19.958;2022-12-10T15:15:30;3.62;77.20
68511;SHT31;55512;50.102;19.958;2022-12-10T15:18:09;3.61;77.15
68511;SHT31;55512;50.102;19.958;2022-12-10T15:23:19;3.61;77.18
68511;SHT31;55512;50.102;19.958;2022-12-10T15:28:36;3.64;77.18
68511;SHT31;55512;50.102;19.958;2022-12-10T15:34:01;3.64;77.12
68511;SHT31;55512;50.102;19.958;2022-12-10T15:39:13;3.64;77.10
68511;SHT31;55512;50.102;19.958;2022-12-10T15:41:46;3.65;77.10
68511;SHT31;55512;50.102;19.958;2022-12-10T15:46:57;3.67;77.31
68511;SHT31;55512;50.102;19.958;2022-12-10T15:49:44;3.68;77.32
68511;SHT31;55512;50.102;19.958;2022-12-10T15:52:14;3.71;77.37
68511;SHT31;55512;50.102;19.958;2022-12-10T15:54:45;3.73;77.32
68511;SHT31;55512;50.102;19.958;2022-12-10T15:59:44;3.78;77.30
68511;SHT31;55512;50.102;19.958;2022-12-10T16:02:24;3.82;77.30
68511;SHT31;55512;50.102;19.958;2022-12-10T16:08:23;3.90;77.24
68511;SHT31;55512;50.102;19.958;2022-12-10T16:10:54;3.95;77.17
68511;SHT31;55512;50.102;19.958;2022-12-10T16:13:27;3.96;77.10
68511;SHT31;55512;50.102;19.958;2022-12-10T16:15:58;3.97;77.05
68511;SHT31;55512;50.102;19.958;2022-12-10T16:18:35;3.96;77.00
68511;SHT31;55512;50.102;19.958;2022-12-10T16:21:05;3.97;77.00
68511;SHT31;55512;50.102;19.958;2022-12-10T16:23:33;3.98;76.99
68511;SHT31;55512;50.102;19.958;2022-12-10T16:25:59;3.98;76.93
68511;SHT31;55512;50.102;19.958;2022-12-10T16:28:25;3.99;76.90
68511;SHT31;55512;50.102;19.958;2022-12-10T16:30:53;4.00;76.81
68511;SHT31;55512;50.102;19.958;2022-12-10T16:33:21;3.99;76.73
68511;SHT31;55512;50.102;19.958;2022-12-10T16:35:51;3.97;76.77
68511;SHT31;55512;50.102;19.958;2022-12-10T16:38:18;3.96;76.75
68511;SHT31;55512;50.102;19.958;2022-12-10T16:40:45;3.96;76.79
68511;SHT31;55512;50.102;19.958;2022-12-10T16:43:17;3.98;76.75
68511;SHT31;55512;50.102;19.958;2022-12-10T16:45:46;4.03;76.70
68511;SHT31;55512;50.102;19.958;2022-12-10T16:48:13;4.06;76.64
68511;SHT31;55512;50.102;19.958;2022-12-10T16:50:40;4.10;76.56
68511;SHT31;55512;50.102;19.958;2022-12-10T16:55:51;4.09;76.41
68511;SHT31;55512;50.102;19.958;2022-12-10T16:58:17;4.07;76.35
68511;SHT31;55512;50.102;19.958;2022-12-10T17:00:45;4.04;76.24
68511;SHT31;55512;50.102;19.958;2022-12-10T17:03:15;4.01;76.20
68511;SHT31;55512;50.102;19.958;2022-12-10T17:05:50;3.97;76.19
68511;SHT31;55512;50.102;19.958;2022-12-10T17:08:22;3.94;76.18
68511;SHT31;55512;50.102;19.958;2022-12-10T17:10:49;3.93;76.16
68511;SHT31;55512;50.102;19.958;2022-12-10T17:13:35;3.93;76.12
68511;SHT31;55512;50.102;19.958;2022-12-10T17:16:02;3.93;76.10
68511;SHT31;55512;50.102;19.958;2022-12-10T17:18:33;3.92;76.10
68511;SHT31;55512;50.102;19.958;2022-12-10T17:20:59;3.90;76.11
68511;SHT31;55512;50.102;19.958;2022-12-10T17:23:25;3.90;76.10
68511;SHT31;55512;50.102;19.958;2022-12-10T17:25:50;3.87;76.10
68511;SHT31;55512;50.102;19.958;2022-12-10T17:28:20;3.85;76.19
68511;SHT31;55512;50.102;19.958;2022-12-10T17:30:47;3.83;76.20
68511;SHT31;55512;50.102;19.958;2022-12-10T17:33:15;3.81;76.21
68511;SHT31;55512;50.102;19.958;2022-12-10T17:35:47;3.80;76.29
68511;SHT31;55512;50.102;19.958;2022-12-10T17:38:16;3.79;76.30
68511;SHT31;55512;50.102;19.958;2022-12-10T17:40:45;3.78;76.33
68511;SHT31;55512;50.102;19.958;2022-12-10T17:43:11;3.79;76.39
68511;SHT31;55512;50.102;19.958;2022-12-10T17:45:37;3.76;76.41
68511;SHT31;55512;50.102;19.958;2022-12-10T17:48:05;3.73;76.50
68511;SHT31;55512;50.102;19.958;2022-12-10T17:50:33;3.71;76.55
68511;SHT31;55512;50.102;19.958;2022-12-10T17:53:01;3.68;76.61
68511;SHT31;55512;50.102;19.958;2022-12-10T17:55:30;3.66;76.64
68511;SHT31;55512;50.102;19.958;2022-12-10T17:57:56;3.65;76.70
68511;SHT31;55512;50.102;19.958;2022-12-10T18:00:23;3.63;76.70
68511;SHT31;55512;50.102;19.958;2022-12-10T18:02:53;3.60;76.70
68511;SHT31;55512;50.102;19.958;2022-12-10T18:05:19;3.59;76.73
68511;SHT31;55512;50.102;19.958;2022-12-10T18:07:44;3.58;76.73
68511;SHT31;55512;50.102;19.958;2022-12-10T18:10:14;3.55;76.72
68511;SHT31;55512;50.102;19.958;2022-12-10T18:12:46;3.50;76.76
68511;SHT31;55512;50.102;19.958;2022-12-10T18:15:13;3.46;76.79
68511;SHT31;55512;50.102;19.958;2022-12-10T18:17:39;3.46;76.80
68511;SHT31;55512;50.102;19.958;2022-12-10T18:20:05;3.46;76.80
68511;SHT31;55512;50.102;19.958;2022-12-10T18:22:33;3.46;76.84
68511;SHT31;55512;50.102;19.958;2022-12-10T18:25:00;3.46;76.88
68511;SHT31;55512;50.102;19.958;2022-12-10T18:27:26;3.46;76.89
68511;SHT31;55512;50.102;19.958;2022-12-10T18:29:52;3.47;76.90
68511;SHT31;55512;50.102;19.958;2022-12-10T18:32:17;3.50;76.90
68511;SHT31;55512;50.102;19.958;2022-12-10T18:34:43;3.50;76.90